Pocatello, ID (83201)

5:48 PM MDT on September 02, 2014 (GMT -0600)
University Area | Change Station
CLOSE
Current Station
Personal Weather Station
Location: Pocatello, ID
Elevation: 4659 ft
Nearby Weather Stations
Active Advisory: Lake Wind Advisory

Elev 4659 ft 42.86 °N, 112.42 °W | Updated 4 seconds ago

Clear
Clear
84.7 °F
Feels Like 82 °F
N
9.2
Wind Variable Wind from NW
Gusts 13.6 mph

Today
High -- | Low -- °F
--% Chance of Precip.
Yesterday
High -- | Low -- °F
Precip. -- in
6:55 AM 8:02 PM
First Quarter, 56% visible
Pressure 29.78 in
Visibility 10.0 miles
Clouds Clear
Heat Index 82 °F
Dew Point 39 °F
Humidity 20%
Rainfall 0.00 in
Snow Depth 0 in
UV 4 out of 12
Pollen 8.10 out of 12
PM2.5 Good
Flu Activity Not available.
METAR KPIH 022253Z 26017KT 10SM CLR 28/02 A2990 RMK AO2 SLP085 T02780017

More Conditions Fewer Conditions

Pressure 29.78 in
Visibility 10.0 miles
Clouds Clear
Heat Index 82 °F
Dew Point 39 °F
Humidity 20%
Rainfall 0.00 in
Snow Depth 0 in
UV 4 out of 12
Pollen 8.10 out of 12
PM2.5 Good
Flu Activity Not available.
METAR KPIH 022253Z 26017KT 10SM CLR 28/02 A2990 RMK AO2 SLP085 T02780017

More Conditions Fewer Conditions

10-Day Weather Forecast

Almanac

Astronomy

Sep. 02, 2014 Rise Set
Actual Time 6:55 AM MDT 8:02 PM MDT
Civil Twilight 6:26 AM MDT 8:31 PM MDT
Nautical Twilight 5:51 AM MDT 9:06 PM MDT
Astronomical Twilight 5:14 AM MDT 9:42 PM MDT
Moon 2:53 PM MDT No Moon Set
Length of Visible Light 14h 05m
Length of Day
13h 06m
Tomorrow will be 2m 49s shorter.
First Quarter, 56% of the Moon is Illuminated
Today
First Quarter
Sep 8
Full
Sep 15
Last Quarter
Sep 24
New
Oct 1
First Quarter

Today's Extremes

State Highs State Lows

Community

WunderPhotos

Upload Photos

1,749,799 photos uploaded!

Nearby

Air Quality

  Air Quality AQ Index Pollutant
Yesterday Good
PM10
Current Good
PM2.5
Tuesday Good
PM2.5
Wednesday Good
PM2.5

Snow Depth

Station Depth Elevation
Wildhorse Divide 0 in 6490 ft
Somsen Ranch 0 in 6800 ft
Franklin Basin 0 in 8170 ft
Swede Peak 0 in 7640 ft
Magic Mountain 0 in 6880 ft

Earthquake Activity

City Distance Mag. Time & Date
Driggs, Idaho 98 miles 3.8 2:09 PM MDT
2014-08-30
Minimum magnitude displayed is 2.5.

Coastal Water Temperatures

Place Temperature
No Stations Reporting

Nearby Weather Stations